Qasr Farafra, Egypt
Current Conditions -  °F | °C
As of 1:00 PM on Thursday 30 Oct 2014 (Local Time) from HESG Reporting Station
Clear Clear  
Wind Chill: 82°   Ceiling: Unl
Heat Index: 82°   Visibility: 6mi
Dew Point: 46°   Wind: 17mph
Humidity: 28%   Direction: 340°NNW
Pressure: 29.91"   Gusts: NA
Location:  27.06°N, 27.97°E
Report Text: HESG 301100Z 34015KT CAVOK 28/08 Q1013 NOSIG
Loading
Personal Weather Stations






























Interactive Weather Map
Tropical Storm Tracking
New forecast layout! Learn more

10-Day Weather Forecast

Advertisements
Track Severe Weather on mobile